Time;durP1;ratioP1;P1;durP2;ratioP2;P2;SDS_P1;SDS_P2;PMS_P1;PMS_P2;Temp;Humidity;BMP_temperature;BMP_pressure;BME280_temperature;BME280_humidity;BME280_pressure;Samples;Min_cycle;Max_cycle;Signal;HPM_P1;HPM_P2
2023/02/12 00:00:47;;;;;;;;;12.50;9.75;;;;;10.61;100.00;103494.91;5019308;28;45460;-73
2023/02/12 00:03:13;;;;;;;;;11.50;8.00;;;;;10.57;100.00;103491.19;5036529;28;45425;-74
2023/02/12 00:05:40;;;;;;;;;18.50;12.75;;;;;10.59;100.00;103494.81;5035324;28;55636;-74
2023/02/12 00:08:06;;;;;;;;;19.50;14.75;;;;;10.56;100.00;103497.31;5021403;28;45550;-75
2023/02/12 00:10:31;;;;;;;;;20.75;12.50;;;;;10.58;100.00;103500.00;5007434;28;45855;-74
2023/02/12 00:12:57;;;;;;;;;13.75;10.25;;;;;10.58;100.00;103489.44;5014911;28;45461;-76
2023/02/12 00:15:22;;;;;;;;;17.75;13.75;;;;;10.61;100.00;103484.34;5026135;28;56421;-74
2023/02/12 00:17:47;;;;;;;;;11.50;11.00;;;;;10.61;100.00;103484.34;5035639;28;55824;-74
2023/02/12 00:20:13;;;;;;;;;20.75;9.75;;;;;10.58;100.00;103478.88;5017686;28;50001;-73
2023/02/12 00:22:38;;;;;;;;;13.75;10.00;;;;;10.59;100.00;103473.66;5035714;28;48890;-74
2023/02/12 00:25:04;;;;;;;;;15.00;10.00;;;;;10.59;100.00;103485.97;5015067;28;55210;-75
2023/02/12 00:27:32;;;;;;;;;14.25;12.00;;;;;10.58;100.00;103476.25;5024451;28;45193;-73
2023/02/12 00:29:57;;;;;;;;;16.50;12.50;;;;;10.58;100.00;103473.59;5011634;28;45416;-74
2023/02/12 00:32:22;;;;;;;;;10.00;10.00;;;;;10.59;100.00;103472.75;5035733;28;51334;-74
2023/02/12 00:34:48;;;;;;;;;12.25;10.50;;;;;10.59;100.00;103478.94;5035532;28;57972;-73
2023/02/12 00:37:13;;;;;;;;;12.75;12.00;;;;;10.61;100.00;103474.69;5035204;28;58067;-74
2023/02/12 00:39:39;;;;;;;;;15.50;9.75;;;;;10.63;100.00;103478.28;5008423;28;45509;-74
2023/02/12 00:42:05;;;;;;;;;15.00;11.75;;;;;10.64;100.00;103473.91;5015323;28;45699;-74
2023/02/12 00:44:30;;;;;;;;;16.25;14.75;;;;;10.64;100.00;103490.69;5020995;28;54326;-74
2023/02/12 00:46:56;;;;;;;;;18.75;11.50;;;;;10.65;100.00;103481.00;5035272;28;45235;-75
2023/02/12 00:49:22;;;;;;;;;16.00;14.00;;;;;10.63;100.00;103473.00;5025836;28;45629;-75
2023/02/12 00:51:48;;;;;;;;;11.25;9.25;;;;;10.64;100.00;103473.91;5027500;28;45306;-73
2023/02/12 00:54:13;;;;;;;;;16.25;11.50;;;;;10.63;100.00;103458.91;5035895;28;46365;-75
2023/02/12 00:56:38;;;;;;;;;15.75;14.00;;;;;10.64;100.00;103472.19;5016576;28;45548;-74
2023/02/12 00:59:04;;;;;;;;;14.50;11.75;;;;;10.66;100.00;103477.56;5035487;28;53152;-75
2023/02/12 01:01:29;;;;;;;;;16.50;13.25;;;;;10.67;100.00;103474.09;5035164;28;51044;-73
2023/02/12 01:03:54;;;;;;;;;16.75;10.75;;;;;10.65;100.00;103465.16;5034982;28;58872;-74
2023/02/12 01:06:20;;;;;;;;;17.25;10.25;;;;;10.64;100.00;103466.91;5034273;28;57391;-75
2023/02/12 01:08:45;;;;;;;;;10.50;10.00;;;;;10.64;100.00;103469.53;5035621;28;50402;-75
2023/02/12 01:11:12;;;;;;;;;15.50;10.50;;;;;10.65;100.00;103467.81;5017771;28;52787;-76
2023/02/12 01:13:37;;;;;;;;;18.75;13.25;;;;;10.65;100.00;103470.44;5035598;28;46032;-74
2023/02/12 01:16:05;;;;;;;;;14.00;11.75;;;;;10.63;100.00;103472.09;5034972;28;46576;-74
2023/02/12 01:18:30;;;;;;;;;14.25;12.00;;;;;10.64;100.00;103473.91;5012995;28;45569;-74
2023/02/12 01:20:57;;;;;;;;;19.25;11.00;;;;;10.63;100.00;103469.47;5025766;28;45590;-75
2023/02/12 01:23:23;;;;;;;;;18.50;13.25;;;;;10.61;100.00;103465.84;5035090;28;45854;-77
2023/02/12 01:25:49;;;;;;;;;13.50;11.50;;;;;10.62;100.00;103463.28;5034207;28;45579;-73
2023/02/12 01:28:14;;;;;;;;;19.00;13.25;;;;;10.62;100.00;103460.63;5025212;28;47421;-76
2023/02/12 01:30:39;;;;;;;;;12.00;12.00;;;;;10.62;100.00;103463.28;5034289;28;51344;-73
2023/02/12 01:33:05;;;;;;;;;14.00;12.00;;;;;10.59;100.00;103460.47;5011206;28;54682;-73
2023/02/12 01:35:30;;;;;;;;;20.00;16.00;;;;;10.60;100.00;103458.72;5032308;28;55753;-76
2023/02/12 01:37:55;;;;;;;;;20.75;14.25;;;;;10.59;100.00;103462.19;5035624;28;46044;-73
2023/02/12 01:40:21;;;;;;;;;17.50;15.25;;;;;10.59;100.00;103462.19;5035256;28;45697;-73
2023/02/12 01:42:46;;;;;;;;;20.50;15.00;;;;;10.56;100.00;103464.69;5033227;28;45869;-74
2023/02/12 01:45:12;;;;;;;;;18.50;17.00;;;;;10.58;100.00;103468.31;5009676;28;60471;-75
2023/02/12 01:47:38;;;;;;;;;14.00;13.50;;;;;10.56;100.00;103472.63;5034886;28;45468;-73
2023/02/12 01:50:06;;;;;;;;;21.50;16.00;;;;;10.57;100.00;103466.50;5001088;28;45548;-76
2023/02/12 01:52:33;;;;;;;;;18.00;15.00;;;;;10.56;100.00;103468.25;5035041;28;46583;-74
2023/02/12 01:55:02;;;;;;;;;19.50;15.25;;;;;10.56;100.00;103462.06;5013197;28;45532;-73
2023/02/12 01:57:30;;;;;;;;;17.25;14.00;;;;;10.56;100.00;103462.06;5011109;28;45425;-74
2023/02/12 01:59:57;;;;;;;;;12.50;10.50;;;;;10.55;100.00;103462.88;5010936;28;45575;-73
2023/02/12 02:02:23;;;;;;;;;11.75;8.25;;;;;10.52;100.00;103454.78;5006997;28;46463;-73
2023/02/12 02:05:00;;;;;;;;;11.00;7.75;;;;;10.51;100.00;103458.25;4996979;28;45354;-73
2023/02/12 02:07:26;;;;;;;;;12.75;8.25;;;;;10.46;100.00;103456.28;5008687;28;45527;-75
2023/02/12 02:09:51;;;;;;;;;11.00;6.50;;;;;10.46;100.00;103464.19;5034761;28;45582;-75
2023/02/12 02:15:02;;;;;;;;;5.00;2.75;;;;;10.41;100.00;103457.75;5017994;28;45560;-76
2023/02/12 02:17:34;;;;;;;;;4.00;2.50;;;;;10.41;100.00;103463.03;5035073;28;45437;-73
2023/02/12 02:20:00;;;;;;;;;5.25;3.00;;;;;10.40;100.00;103461.22;5001246;28;45337;-74
2023/02/12 02:22:54;;;;;;;;;3.00;3.00;;;;;10.38;100.00;103460.22;5025427;28;46832;-74
2023/02/12 02:25:33;;;;;;;;;4.00;1.00;;;;;10.37;100.00;103463.69;5016217;28;45366;-75
2023/02/12 02:28:07;;;;;;;;;1.00;1.00;;;;;10.37;100.00;103458.41;5002920;28;45551;-75
2023/02/12 02:30:35;;;;;;;;;3.00;3.00;;;;;10.36;100.00;103458.34;5013816;28;45486;-73
2023/02/12 02:33:22;;;;;;;;;1.00;0.67;;;;;10.36;100.00;103456.59;5030808;28;45768;-77
2023/02/12 02:36:09;;;;;;;;;1.00;1.00;;;;;10.36;100.00;103448.69;5025776;28;45466;-75
2023/02/12 02:38:49;;;;;;;;;2.33;0.00;;;;;10.36;100.00;103448.69;5036056;28;45322;-74
2023/02/12 02:41:24;;;;;;;;;3.00;1.00;;;;;10.37;100.00;103445.19;5014755;28;45501;-74
2023/02/12 02:43:50;;;;;;;;;2.00;1.00;;;;;10.38;100.00;103451.38;5031826;28;45879;-74
2023/02/12 02:46:25;;;;;;;;;1.00;1.00;;;;;10.35;100.00;103436.31;5034455;28;56315;-76
2023/02/12 02:48:53;;;;;;;;;0.00;0.00;;;;;10.38;100.00;103440.81;5028018;28;45261;-76
2023/02/12 02:51:21;;;;;;;;;1.00;1.00;;;;;10.39;100.00;103446.22;5032415;28;45460;-74
2023/02/12 02:54:05;;;;;;;;;3.00;1.67;;;;;10.40;100.00;103445.38;5019417;28;45681;-74
2023/02/12 02:56:32;;;;;;;;;2.33;0.00;;;;;10.41;100.00;103441.91;5026842;28;45391;-75
2023/02/12 02:59:05;;;;;;;;;1.67;1.00;;;;;10.42;100.00;103454.28;5010162;28;45631;-75
2023/02/12 03:01:35;;;;;;;;;1.00;1.00;;;;;10.39;100.00;103450.59;5034867;28;45577;-74
2023/02/12 03:04:11;;;;;;;;;0.67;0.67;;;;;10.42;100.00;103456.00;5010943;28;47226;-73
2023/02/12 03:06:45;;;;;;;;;1.00;1.00;;;;;10.40;100.00;103448.03;5001117;28;45335;-74
2023/02/12 03:09:18;;;;;;;;;1.00;0.00;;;;;10.36;100.00;103438.09;4996793;28;45486;-74
2023/02/12 03:11:45;;;;;;;;;1.00;1.00;;;;;10.34;100.00;103437.13;5006264;28;46051;-75
2023/02/12 03:14:21;;;;;;;;;0.33;0.33;;;;;10.33;100.00;103429.09;5027549;28;46845;-75
2023/02/12 03:16:47;;;;;;;;;2.00;1.00;;;;;10.30;100.00;103427.22;5033466;28;45344;-74
2023/02/12 03:19:22;;;;;;;;;0.00;0.00;;;;;10.29;100.00;103412.22;5037799;28;45333;-74
2023/02/12 03:21:52;;;;;;;;;1.00;1.00;;;;;10.28;100.00;103415.69;5036964;28;45516;-75
2023/02/12 03:24:20;;;;;;;;;1.00;1.00;;;;;10.28;100.00;103415.69;5009756;28;46764;-73
2023/02/12 03:26:50;;;;;;;;;1.00;1.00;;;;;10.23;100.00;103409.22;5035649;28;45593;-73
2023/02/12 03:29:15;;;;;;;;;1.00;1.00;;;;;10.24;100.00;103403.13;5008334;28;45499;-73
2023/02/12 03:31:47;;;;;;;;;1.00;1.00;;;;;10.27;100.00;103413.84;5012104;28;45523;-73
2023/02/12 03:34:18;;;;;;;;;1.33;0.33;;;;;10.29;100.00;103417.50;5028812;28;46132;-73
2023/02/12 03:37:07;;;;;;;;;2.00;1.00;;;;;10.29;100.00;103414.84;5016486;28;45304;-74
2023/02/12 03:39:49;;;;;;;;;2.00;1.00;;;;;10.28;100.00;103407.75;4992551;28;45459;-75
2023/02/12 03:42:38;;;;;;;;;2.00;1.00;;;;;10.29;100.00;103406.94;5033745;28;45614;-76
2023/02/12 03:45:31;;;;;;;;;1.00;0.00;;;;;10.31;100.00;103399.09;5012741;28;45892;-74
2023/02/12 03:48:02;;;;;;;;;2.50;1.75;;;;;10.29;100.00;103400.75;5033337;28;45592;-74
2023/02/12 03:50:38;;;;;;;;;1.33;1.00;;;;;10.30;100.00;103410.47;5013034;28;45523;-74
2023/02/12 03:53:04;;;;;;;;;2.00;0.67;;;;;10.25;100.00;103402.31;5008040;28;45441;-73
2023/02/12 03:55:30;;;;;;;;;1.00;1.00;;;;;10.31;100.00;103407.91;5013211;28;45837;-75
2023/02/12 03:57:59;;;;;;;;;3.00;2.00;;;;;10.33;100.00;103410.63;5015658;28;45605;-73
2023/02/12 04:00:25;;;;;;;;;2.00;1.00;;;;;10.34;100.00;103401.91;4992939;28;45421;-73
2023/02/12 04:02:52;;;;;;;;;2.33;1.00;;;;;10.33;100.00;103400.97;5018505;28;45345;-74
2023/02/12 04:05:21;;;;;;;;;6.33;2.33;;;;;10.35;100.00;103401.97;5035399;28;45978;-75
2023/02/12 04:07:48;;;;;;;;;6.00;4.00;;;;;10.34;100.00;103402.81;5012549;28;45231;-74
2023/02/12 04:10:14;;;;;;;;;6.00;3.00;;;;;10.37;100.00;103405.59;5016962;28;45485;-76
2023/02/12 04:12:46;;;;;;;;;9.00;3.75;;;;;10.36;100.00;103400.22;5016384;28;45464;-74
2023/02/12 04:15:20;;;;;;;;;4.00;4.00;;;;;10.38;100.00;103401.22;5004479;28;47476;-74
2023/02/12 04:18:03;;;;;;;;;6.25;3.00;;;;;10.37;100.00;103400.31;5037316;28;45325;-77
2023/02/12 04:20:41;;;;;;;;;4.00;3.00;;;;;10.36;100.00;103400.22;5008054;28;45452;-74
2023/02/12 04:23:12;;;;;;;;;3.75;2.75;;;;;10.33;100.00;103407.97;5030771;28;45346;-75
2023/02/12 04:25:43;;;;;;;;;5.00;3.25;;;;;10.34;100.00;103413.38;5021442;28;47949;-73
2023/02/12 04:28:42;;;;;;;;;7.00;3.00;;;;;10.35;100.00;103407.25;5036130;28;45354;-75
2023/02/12 04:31:22;;;;;;;;;4.00;4.00;;;;;10.35;100.00;103401.06;5019160;28;45401;-73
2023/02/12 04:33:58;;;;;;;;;8.25;5.00;;;;;10.35;100.00;103406.34;5015492;28;45469;-74
2023/02/12 04:36:26;;;;;;;;;7.25;6.00;;;;;10.35;100.00;103415.19;5005629;28;45295;-73
2023/02/12 04:38:59;;;;;;;;;6.50;6.00;;;;;10.36;100.00;103416.97;5022883;28;45466;-75
2023/02/12 04:41:24;;;;;;;;;5.75;3.25;;;;;10.35;100.00;103412.53;5018172;28;45536;-74
2023/02/12 04:43:50;;;;;;;;;8.50;5.25;;;;;10.34;100.00;103410.72;5018595;28;45607;-74
2023/02/12 04:46:15;;;;;;;;;5.75;4.00;;;;;10.34;100.00;103412.47;5033628;28;46525;-75
2023/02/12 04:49:01;;;;;;;;;10.25;5.50;;;;;10.35;100.00;103409.91;5026760;28;45598;-73
2023/02/12 04:51:26;;;;;;;;;8.00;6.75;;;;;10.36;100.00;103422.25;5033154;28;54892;-75
2023/02/12 04:53:51;;;;;;;;;8.75;8.25;;;;;10.35;100.00;103428.38;5035550;28;54870;-74
2023/02/12 04:56:17;;;;;;;;;10.00;7.00;;;;;10.35;100.00;103423.09;5035487;28;57178;-74
2023/02/12 04:58:42;;;;;;;;;7.00;7.00;;;;;10.34;100.00;103416.00;5018185;28;45413;-73
2023/02/12 05:01:09;;;;;;;;;9.00;7.25;;;;;10.37;100.00;103423.16;5012497;28;45546;-74
2023/02/12 05:03:34;;;;;;;;;13.50;7.50;;;;;10.37;100.00;103409.97;5014970;28;45555;-73
2023/02/12 05:06:04;;;;;;;;;7.50;7.50;;;;;10.41;100.00;103410.22;5031439;28;45568;-74
2023/02/12 05:08:30;;;;;;;;;10.75;9.00;;;;;10.44;100.00;103407.75;5016932;28;45385;-73
2023/02/12 05:10:55;;;;;;;;;10.00;7.00;;;;;10.46;100.00;103403.44;5013810;28;45356;-75
2023/02/12 05:13:21;;;;;;;;;14.25;9.00;;;;;10.47;100.00;103409.63;5012776;28;47498;-73
2023/02/12 05:15:46;;;;;;;;;14.25;9.75;;;;;10.51;100.00;103419.53;5010353;28;45430;-74
2023/02/12 05:18:11;;;;;;;;;9.00;7.50;;;;;10.55;100.00;103415.34;5033806;28;51717;-74
2023/02/12 05:20:37;;;;;;;;;11.00;10.25;;;;;10.56;100.00;103411.84;5024011;28;45747;-73
2023/02/12 05:23:02;;;;;;;;;15.00;11.25;;;;;10.54;100.00;103403.81;5015863;28;52536;-75
2023/02/12 05:25:27;;;;;;;;;14.00;10.00;;;;;10.58;100.00;103416.38;5013895;28;55201;-73
2023/02/12 05:27:55;;;;;;;;;12.50;8.25;;;;;10.58;100.00;103405.81;5029437;28;45386;-74
2023/02/12 05:30:20;;;;;;;;;10.75;10.25;;;;;10.60;100.00;103403.25;5023679;28;45233;-75
2023/02/12 05:32:46;;;;;;;;;10.00;7.25;;;;;10.62;100.00;103407.78;5035033;28;45332;-74
2023/02/12 05:35:11;;;;;;;;;9.75;8.50;;;;;10.64;100.00;103407.88;5032648;28;46371;-75
2023/02/12 05:37:36;;;;;;;;;12.75;8.00;;;;;10.64;100.00;103398.19;5025806;28;57734;-74
2023/02/12 05:40:05;;;;;;;;;12.50;8.75;;;;;10.65;100.00;103402.69;5034718;28;45442;-76
2023/02/12 05:42:30;;;;;;;;;9.00;7.00;;;;;10.66;100.00;103404.50;5017853;28;45735;-74
2023/02/12 05:44:55;;;;;;;;;5.25;2.00;;;;;10.65;100.00;103400.03;5011942;28;46522;-73
2023/02/12 05:47:21;;;;;;;;;11.50;7.25;;;;;10.66;100.00;103393.03;5033222;28;51561;-74
2023/02/12 05:49:46;;;;;;;;;12.00;9.50;;;;;10.69;100.00;103393.16;5035047;28;53186;-74
2023/02/12 05:52:11;;;;;;;;;12.50;6.00;;;;;10.67;100.00;103395.72;5033946;28;53296;-75
2023/02/12 05:54:37;;;;;;;;;9.00;7.00;;;;;10.69;100.00;103393.16;5031735;28;61145;-76
2023/02/12 05:57:02;;;;;;;;;9.25;4.00;;;;;10.67;100.00;103398.38;5014417;28;54904;-76
2023/02/12 05:59:27;;;;;;;;;6.75;5.00;;;;;10.67;100.00;103398.38;5031233;28;45397;-74
2023/02/12 06:01:53;;;;;;;;;8.75;6.75;;;;;10.69;100.00;103398.44;5007897;28;45506;-75
2023/02/12 06:04:22;;;;;;;;;8.00;7.50;;;;;10.70;100.00;103395.88;5015867;28;46573;-74
2023/02/12 06:06:48;;;;;;;;;10.00;6.00;;;;;10.72;100.00;103388.94;5038511;28;45243;-74
2023/02/12 06:09:13;;;;;;;;;7.75;5.25;;;;;10.73;100.00;103387.22;5011294;28;45331;-73
2023/02/12 06:11:39;;;;;;;;;6.50;6.50;;;;;10.72;100.00;103386.31;5013372;28;45480;-75
2023/02/12 06:14:06;;;;;;;;;8.00;4.00;;;;;10.72;100.00;103390.69;5016899;28;47066;-75
2023/02/12 06:16:32;;;;;;;;;13.75;9.25;;;;;10.71;100.00;103387.13;5032704;28;45389;-73
2023/02/12 06:19:00;;;;;;;;;8.75;7.00;;;;;10.73;100.00;103392.50;5037320;28;45531;-74
2023/02/12 06:21:26;;;;;;;;;8.25;4.25;;;;;10.73;100.00;103384.56;5020865;28;45442;-74
2023/02/12 06:23:52;;;;;;;;;10.25;8.75;;;;;10.72;100.00;103381.03;5037841;28;45903;-74
2023/02/12 06:26:17;;;;;;;;;7.00;5.25;;;;;10.73;100.00;103381.91;5015276;28;45277;-76
2023/02/12 06:28:43;;;;;;;;;9.00;8.00;;;;;10.73;100.00;103377.53;5036438;28;45529;-73
2023/02/12 06:31:21;;;;;;;;;7.25;4.75;;;;;10.77;100.00;103372.44;5010274;28;45267;-76
2023/02/12 06:33:46;;;;;;;;;13.75;7.25;;;;;10.77;100.00;103386.53;5020837;28;46820;-74
2023/02/12 06:36:12;;;;;;;;;8.50;6.50;;;;;10.74;100.00;103389.00;5019561;28;45445;-73
2023/02/12 06:38:37;;;;;;;;;11.25;6.75;;;;;10.73;100.00;103380.19;5029600;28;54804;-76
2023/02/12 06:41:03;;;;;;;;;4.00;4.00;;;;;10.70;100.00;103382.66;5037354;28;54151;-74
2023/02/12 06:43:28;;;;;;;;;3.00;3.00;;;;;10.73;100.00;103390.75;5016950;28;45331;-74
2023/02/12 06:45:54;;;;;;;;;8.00;6.00;;;;;10.71;100.00;103391.53;5032587;28;45457;-72
2023/02/12 06:48:19;;;;;;;;;5.75;5.75;;;;;10.68;100.00;103380.78;5016568;28;45428;-76
2023/02/12 06:50:45;;;;;;;;;6.67;4.33;;;;;10.67;100.00;103389.53;5030015;28;45398;-75
2023/02/12 06:53:10;;;;;;;;;7.50;6.75;;;;;10.69;100.00;103394.06;5016757;28;53090;-76
2023/02/12 06:55:35;;;;;;;;;4.00;4.00;;;;;10.65;100.00;103388.53;5035271;28;57778;-74
2023/02/12 06:58:01;;;;;;;;;9.50;6.00;;;;;10.67;100.00;103401.00;5015612;28;53204;-74
2023/02/12 07:00:26;;;;;;;;;5.00;4.67;;;;;10.65;100.00;103399.09;5010745;28;45570;-76
2023/02/12 07:02:55;;;;;;;;;7.00;3.67;;;;;10.66;100.00;103403.59;5033621;28;48323;-73
2023/02/12 07:05:21;;;;;;;;;10.00;3.50;;;;;10.64;100.00;103397.28;5034341;28;45396;-74
2023/02/12 07:07:47;;;;;;;;;6.00;4.00;;;;;10.63;100.00;103403.41;5014715;28;45325;-73
2023/02/12 07:10:12;;;;;;;;;4.33;4.00;;;;;10.65;100.00;103409.66;5012692;28;45438;-73
2023/02/12 07:12:38;;;;;;;;;7.75;4.75;;;;;10.65;100.00;103415.88;5016138;28;46707;-76
2023/02/12 07:15:03;;;;;;;;;5.25;3.00;;;;;10.62;100.00;103414.81;5034584;28;45487;-73
2023/02/12 07:17:29;;;;;;;;;7.00;3.75;;;;;10.62;100.00;103418.34;5016162;28;45377;-73
2023/02/12 07:19:55;;;;;;;;;3.50;3.00;;;;;10.60;100.00;103405.88;5015357;28;45334;-74
2023/02/12 07:22:21;;;;;;;;;3.50;3.00;;;;;10.62;100.00;103415.72;5028066;28;46410;-75
2023/02/12 07:24:46;;;;;;;;;6.25;6.25;;;;;10.62;100.00;103423.66;5035246;28;45571;-74
2023/02/12 07:27:12;;;;;;;;;5.00;4.00;;;;;10.64;100.00;103431.66;5020109;28;45532;-74
2023/02/12 07:29:37;;;;;;;;;3.75;3.25;;;;;10.65;100.00;103422.88;5028796;28;54280;-76
2023/02/12 07:32:02;;;;;;;;;6.00;2.50;;;;;10.63;100.00;103430.72;5028651;28;46849;-74
2023/02/12 07:34:28;;;;;;;;;7.50;4.25;;;;;10.59;100.00;103420.81;5018507;28;45430;-73
2023/02/12 07:36:53;;;;;;;;;4.25;4.00;;;;;10.63;100.00;103433.38;5024870;28;45373;-74
2023/02/12 07:39:18;;;;;;;;;3.75;3.75;;;;;10.62;100.00;103423.66;5023127;28;45236;-75
2023/02/12 07:41:44;;;;;;;;;2.00;2.00;;;;;10.62;100.00;103435.94;5025356;28;45357;-74
2023/02/12 07:44:11;;;;;;;;;7.00;3.33;;;;;10.60;100.00;103432.31;5025118;28;54780;-75
2023/02/12 07:46:39;;;;;;;;;5.33;3.00;;;;;10.59;100.00;103441.97;5000487;28;45504;-74
2023/02/12 07:49:07;;;;;;;;;2.67;2.67;;;;;10.56;100.00;103439.19;5007920;28;45675;-74
2023/02/12 07:51:35;;;;;;;;;6.25;6.25;;;;;10.54;100.00;103442.53;5030720;28;46389;-74
2023/02/12 07:54:01;;;;;;;;;9.33;6.33;;;;;10.53;100.00;103433.72;5015469;28;45609;-74
2023/02/12 07:56:31;;;;;;;;;6.00;3.75;;;;;10.50;100.00;103433.56;5030404;28;45481;-74
2023/02/12 07:58:58;;;;;;;;;7.00;5.00;;;;;10.48;100.00;103436.13;5014314;28;45548;-74
2023/02/12 08:01:26;;;;;;;;;5.50;5.50;;;;;10.47;100.00;103443.97;5148012;22;45790;-74
2023/02/12 08:03:53;;;;;;;;;7.00;2.00;;;;;10.46;100.00;103439.50;5017043;28;45235;-75
2023/02/12 08:06:27;;;;;;;;;4.67;3.00;;;;;10.42;100.00;103440.16;5037053;28;45490;-76
2023/02/12 08:08:54;;;;;;;;;3.33;3.33;;;;;10.41;100.00;103435.72;5021048;28;45512;-74
2023/02/12 08:11:20;;;;;;;;;4.00;4.00;;;;;10.41;100.00;103441.91;5018160;28;45425;-77
2023/02/12 08:13:46;;;;;;;;;3.50;3.50;;;;;10.37;100.00;103437.28;5013439;28;45569;-76
2023/02/12 08:16:30;;;;;;;;;3.25;3.00;;;;;10.39;100.00;103438.28;5034075;28;45544;-74
2023/02/12 08:18:57;;;;;;;;;8.00;4.00;;;;;10.42;100.00;103440.16;5035271;28;45421;-75
2023/02/12 08:21:26;;;;;;;;;9.50;6.25;;;;;10.43;100.00;103455.19;5015649;28;46785;-74
2023/02/12 08:23:57;;;;;;;;;5.75;4.25;;;;;10.42;100.00;103449.00;5016700;28;45560;-75
2023/02/12 08:26:34;;;;;;;;;5.50;3.00;;;;;10.35;100.00;103433.66;5014845;28;45478;-75
2023/02/12 08:29:01;;;;;;;;;4.00;3.25;;;;;10.41;100.00;103443.66;5036363;28;45512;-74
2023/02/12 08:31:29;;;;;;;;;4.25;3.50;;;;;10.44;100.00;103433.25;5034023;28;46891;-75
2023/02/12 08:33:54;;;;;;;;;4.00;2.75;;;;;10.43;100.00;103441.97;5015197;28;45474;-75
2023/02/12 08:36:22;;;;;;;;;3.00;3.00;;;;;10.48;100.00;103451.06;5033879;28;45367;-75
2023/02/12 08:38:47;;;;;;;;;4.00;4.00;;;;;10.50;100.00;103449.44;5018025;28;45520;-74
2023/02/12 08:41:17;;;;;;;;;4.00;3.00;;;;;10.52;100.00;103446.84;5034701;28;46002;-74
2023/02/12 08:43:43;;;;;;;;;4.00;4.00;;;;;10.54;100.00;103456.66;4993896;28;45636;-75
2023/02/12 08:46:28;;;;;;;;;7.00;5.00;;;;;10.56;100.00;103462.06;5032301;28;45931;-74
2023/02/12 08:48:56;;;;;;;;;4.00;3.00;;;;;10.59;100.00;103460.47;5018094;28;45549;-75
2023/02/12 08:51:24;;;;;;;;;2.00;2.00;;;;;10.62;100.00;103462.38;5014544;28;46466;-74
2023/02/12 08:53:55;;;;;;;;;2.00;2.00;;;;;10.66;100.00;103459.06;5002372;28;46178;-74
2023/02/12 08:56:22;;;;;;;;;3.67;1.67;;;;;10.69;100.00;103457.47;5016327;28;45495;-74
2023/02/12 08:58:48;;;;;;;;;1.00;1.00;;;;;10.71;100.00;103466.41;5033481;28;47042;-74
2023/02/12 09:01:19;;;;;;;;;3.00;2.00;;;;;10.74;100.00;103463.91;5014525;28;46424;-76
2023/02/12 09:03:44;;;;;;;;;3.67;2.00;;;;;10.75;100.00;103455.16;5033897;28;45381;-75
2023/02/12 09:06:10;;;;;;;;;2.67;2.00;;;;;10.78;100.00;103454.41;5010397;28;45595;-73
2023/02/12 09:08:36;;;;;;;;;1.67;1.67;;;;;10.80;100.00;103465.06;5014147;28;45587;-72
2023/02/12 09:11:11;;;;;;;;;1.00;1.00;;;;;10.85;100.00;103463.56;5007521;28;46776;-71
2023/02/12 09:13:38;;;;;;;;;1.33;1.33;;;;;10.87;100.00;103456.66;5023473;28;45687;-74
2023/02/12 09:16:05;;;;;;;;;5.33;2.00;;;;;10.90;100.00;103451.50;5022300;28;45727;-75
2023/02/12 09:18:30;;;;;;;;;1.00;1.00;;;;;10.93;100.00;103456.97;5030359;28;45555;-76
2023/02/12 09:21:01;;;;;;;;;2.00;2.00;;;;;10.90;100.00;103443.56;5004500;28;46184;-76
2023/02/12 09:23:26;;;;;;;;;1.00;1.00;;;;;10.97;100.00;103451.91;5019249;28;45578;-74
2023/02/12 09:25:52;;;;;;;;;2.00;2.00;;;;;11.00;100.00;103446.75;5016324;28;47464;-74
2023/02/12 09:28:17;;;;;;;;;4.00;2.67;;;;;11.05;100.00;103443.47;5005932;28;51960;-75
2023/02/12 09:30:42;;;;;;;;;3.67;2.00;;;;;11.08;100.00;103451.53;5025684;28;58483;-75
2023/02/12 09:33:09;;;;;;;;;3.67;3.00;;;;;11.11;100.00;103457.88;5028130;28;45822;-73
2023/02/12 09:35:35;;;;;;;;;4.67;3.33;;;;;11.15;100.00;103448.38;5010454;28;55712;-74
2023/02/12 09:38:00;;;;;;;;;5.00;3.00;;;;;11.12;100.00;103433.25;5012516;28;45848;-73
2023/02/12 09:41:02;;;;;;;;;4.00;3.00;;;;;11.18;100.00;103437.94;5016409;28;47278;-74
2023/02/12 09:43:43;;;;;;;;;5.00;2.67;;;;;11.21;100.00;103440.75;5031365;28;45491;-73
2023/02/12 09:46:27;;;;;;;;;2.33;1.00;;;;;11.27;100.00;103443.69;5015397;28;45589;-75
2023/02/12 09:49:04;;;;;;;;;6.00;4.00;;;;;11.28;100.00;103435.84;5011946;28;45522;-74
2023/02/12 09:51:30;;;;;;;;;6.00;1.67;;;;;11.33;100.00;103437.81;5031918;28;46623;-76
2023/02/12 09:54:10;;;;;;;;;3.00;3.00;;;;;11.39;100.00;103433.72;5014212;28;45455;-74
2023/02/12 09:56:37;;;;;;;;;3.00;3.00;;;;;11.45;100.00;103433.09;5012331;28;45448;-73
2023/02/12 09:59:07;;;;;;;;;8.33;6.33;;;;;11.49;100.00;103430.69;5014912;28;45522;-74
2023/02/12 10:01:33;;;;;;;;;7.00;4.00;;;;;11.50;100.00;103427.25;5029967;28;46037;-73
2023/02/12 10:03:59;;;;;;;;;3.00;3.00;;;;;11.56;100.00;103431.94;5012379;28;45517;-73
2023/02/12 10:06:31;;;;;;;;;4.00;4.00;;;;;11.61;100.00;103424.19;5013739;28;45456;-74
2023/02/12 10:09:09;;;;;;;;;2.33;2.33;;;;;11.65;100.00;103427.06;5033793;28;45734;-73
2023/02/12 10:12:12;;;;;;;;;4.33;2.33;;;;;11.67;100.00;103429.78;5017692;28;45923;-72
2023/02/12 10:14:52;;;;;;;;;3.00;3.00;;;;;11.69;100.00;103433.41;4996498;28;45520;-75
2023/02/12 10:17:32;;;;;;;;;5.00;4.00;;;;;11.69;100.00;103423.72;5033715;28;45580;-74
2023/02/12 10:20:04;;;;;;;;;3.00;2.00;;;;;11.72;100.00;103436.22;5013232;28;45913;-74
2023/02/12 10:23:15;;;;;;;;;3.33;3.00;;;;;11.71;100.00;103427.34;5016765;28;46632;-75
2023/02/12 10:26:20;;;;;;;;;3.67;3.00;;;;;11.79;100.00;103420.69;5023679;28;45615;-74
2023/02/12 10:28:46;;;;;;;;;4.00;3.00;;;;;11.85;100.00;103427.16;5038488;28;45498;-74
2023/02/12 10:31:50;;;;;;;;;8.00;2.67;;;;;11.92;100.00;103421.28;5036110;28;45540;-73
2023/02/12 10:34:25;;;;;;;;;4.33;3.67;;;;;11.96;100.00;103417.97;4982535;28;45993;-76
2023/02/12 10:36:53;;;;;;;;;5.00;3.00;;;;;11.98;100.00;103421.56;4975286;28;45450;-73
2023/02/12 10:39:41;;;;;;;;;2.67;2.67;;;;;12.02;100.00;103427.09;4992891;28;45524;-73
2023/02/12 10:42:37;;;;;;;;;3.00;2.00;;;;;12.07;100.00;103414.97;5037425;28;45571;-74
2023/02/12 10:45:03;;;;;;;;;3.00;2.67;;;;;12.10;100.00;103422.16;5003434;28;48465;-73
2023/02/12 10:47:28;;;;;;;;;6.33;3.00;;;;;12.12;100.00;103411.63;5037990;28;45441;-73
2023/02/12 10:49:58;;;;;;;;;3.00;3.00;;;;;12.14;100.00;103410.84;5033634;28;45400;-75
2023/02/12 10:52:55;;;;;;;;;4.33;3.00;;;;;12.18;100.00;103422.50;5038263;28;45615;-73
2023/02/12 10:55:29;;;;;;;;;8.00;4.00;;;;;12.18;100.00;103410.16;5017319;28;45835;-74
2023/02/12 10:57:56;;;;;;;;;4.00;3.00;;;;;12.26;100.00;103418.47;5018006;28;45371;-73
2023/02/12 11:00:31;;;;;;;;;3.67;3.33;;;;;12.32;100.00;103418.75;5014443;28;45302;-73
2023/02/12 11:03:21;;;;;;;;;4.00;4.00;;;;;12.37;100.00;103403.97;5022524;28;45448;-73
2023/02/12 11:05:46;;;;;;;;;10.00;4.00;;;;;12.41;100.00;103415.59;5012335;28;46857;-73
2023/02/12 11:08:33;;;;;;;;;4.00;4.00;;;;;12.41;100.00;103420.88;5036850;28;45286;-73
2023/02/12 11:11:30;;;;;;;;;4.67;4.00;;;;;12.38;100.00;103408.44;5024642;28;45498;-74
2023/02/12 11:13:58;;;;;;;;;5.00;5.00;;;;;12.40;100.00;103405.84;5036300;28;45518;-73
2023/02/12 11:16:35;;;;;;;;;8.33;3.00;;;;;12.37;100.00;103398.66;5038028;28;46448;-73
2023/02/12 11:19:06;;;;;;;;;9.00;8.00;;;;;12.39;100.00;103404.03;5000610;28;45541;-73
2023/02/12 11:21:32;;;;;;;;;6.00;5.33;;;;;12.37;100.00;103403.97;5020451;28;45391;-76
2023/02/12 11:24:31;;;;;;;;;4.33;4.00;;;;;12.36;100.00;103395.94;5020309;28;45480;-73
2023/02/12 11:27:23;;;;;;;;;5.67;5.67;;;;;12.36;100.00;103394.22;5037870;28;46634;-74
2023/02/12 11:30:11;;;;;;;;;11.33;8.00;;;;;12.35;100.00;103396.78;5023758;28;45701;-74